ADDS METAR Data INFO
IDs: Format: Raw Decoded Include TAF

Data at: 1916 UTC 19 Jul 2018

KBLM 191656Z AUTO 07007KT 10SM CLR 25/15 A3012 RMK AO2 SLP201 T02500150
KBLM 191556Z AUTO VRB06KT 10SM CLR 24/15 A3013 RMK AO2 SLP204 T02390150
KBLM 191456Z AUTO 04005KT 10SM CLR 23/14 A3012 RMK AO2 SLP203 T02330144 51014
KBLM 191356Z AUTO 06007KT 10SM CLR 23/15 A3011 RMK AO2 SLP200 T02330150 TSNO
KBLM 191256Z AUTO 04007KT 10SM CLR 22/14 A3010 RMK AO2 SLP195 T02220139
KBLM 191156Z AUTO 01005KT 10SM CLR 21/14 A3008 RMK AO2 SLP189 7//// T02060139 10206 20150 53011
KBLM 191056Z AUTO 32003KT 10SM CLR 17/13 A3007 RMK AO2 SLP185 T01720128
KBLM 190956Z AUTO 32004KT 10SM CLR 16/12 A3005 RMK AO2 SLP180 T01560122
KBLM 190856Z AUTO 31003KT 10SM CLR 16/13 A3005 RMK AO2 SLP178 T01560128 53008
KBLM 190756Z AUTO 31003KT 10SM CLR 17/13 A3004 RMK AO2 SLP173 T01670128
KBLM 190656Z AUTO 30005KT 10SM CLR 17/13 A3003 RMK AO2 SLP171 T01720128
KBLM 190556Z AUTO 00000KT 10SM CLR 18/13 A3002 RMK AO2 SLP169 T01830128 10267 20183 53013
KBLM 190456Z AUTO 29005KT 10SM CLR 18/13 A3001 RMK AO2 SLP165 T01830133 403000183
KBLM 190356Z AUTO 31005KT 10SM CLR 21/13 A2999 RMK AO2 SLP159 T02060128
KBLM 190256Z AUTO 33006KT 10SM CLR 22/13 A2998 RMK AO2 SLP155 T02220128
KBLM 190156Z AUTO 33004KT 10SM CLR 23/14 RMK AO2 SLPNO T02280139 $
KBLM 190056Z AUTO 32004KT 10SM CLR 24/14 A2995 RMK AO2 SLP144 T02440139
KBLM 182356Z AUTO 31005KT 10SM SCT085 27/15 A2994 RMK AO2 SLP140 6//// T02670150 10300 20267
KBLM 182256Z AUTO 33005KT 10SM FEW070 OVC090 28/16 A2991 RMK AO2 SLP131 T02830156
KBLM 182156Z AUTO 35005KT 10SM FEW070 BKN085 28/15 A2990 RMK AO2 SLP127 T02780150
KBLM 182056Z AUTO 35009KT 10SM CLR 29/14 RMK AO2 SLPNO 6//// T02890139 $
KBLM 181956Z AUTO 35006KT 10SM CLR 29/13 A2990 RMK AO2 SLP128 T02940133
KBLM 181856Z AUTO 34008KT 10SM SCT060 28/14 A2991 RMK AO2 SLP131 T02830139
KBLM 181756Z AUTO 03010KT 10SM FEW060 29/13 A2991 RMK AO2 SLP130 T02890133 10289 20211 56002
KBLM 181656Z AUTO 01009KT 10SM OVC055 27/16 A2991 RMK AO2 SLP131 T02670161
KBLM 181556Z AUTO 01010G15KT 10SM CLR 27/17 A2991 RMK AO2 SLP130 T02670167
KBLM 181456Z AUTO 01007KT 10SM CLR 26/17 A2992 RMK AO2 SLP133 T02560172 51013
KBLM 181356Z AUTO 35011KT 10SM CLR 25/17 A2991 RMK AO2 SLP129 T02500172
KBLM 181256Z AUTO 34008KT 10SM CLR 23/18 A2990 RMK AO2 SLP127 T02280178
KBLM 181156Z AUTO 31008KT 10SM CLR 21/18 A2988 RMK AO2 SLP120 7//// T02110178 10211 20189 51008
KBLM 181056Z AUTO 30005KT 10SM CLR 19/17 A2987 RMK AO2 SLP119 T01940172
KBLM 180956Z AUTO 30003KT 10SM CLR 19/18 A2987 RMK AO2 SLP117 T01890178
KBLM 180856Z AUTO 30005KT 10SM CLR 20/19 A2985 RMK AO2 SLP113 T02000189 51012
KBLM 180756Z AUTO 31007KT 10SM BKN065 21/20 A2984 RMK AO2 SLP109 T02060200